KYKM/YKM METAR and TAF weather

Enter ICAO airport designator
Station Type Date Time Source
KYKM METAR 2022/08/12 14:53 UTC NOAA

KYKM 121453Z AUTO 26009KT 9SM CLR 21/11 A2996 RMK AO2 SLP138 T02110111 53006


Station Type Date Time Source
KYKM Decoded METAR 2022/08/12 14:53 UTC NOAA

YAKIMA AIR TERMINAL, WA, United States (KYKM) 46-34N 120-32W 324M
Aug 12, 2022 - 10:53 AM EDT / 2022.08.12 1453 UTC
Wind: from the W (260 degrees) at 10 MPH (9 KT):0
Visibility: 9 mile(s):0
Sky conditions: clear
Temperature: 70.0 F (21.1 C)
Dew Point: 52.0 F (11.1 C)
Relative Humidity: 52%
Pressure (altimeter): 29.96 in. Hg (1014 hPa)
Pressure tendency: 0.02 inches (0.6 hPa) higher than three hours ago
ob: KYKM 121453Z AUTO 26009KT 9SM CLR 21/11 A2996 RMK AO2 SLP138 T02110111 53006
cycle: 15

Station Type Date Time Source
KYKM TAF 2022/08/12 12:22 UTC NOAA

TAF KYKM 121120Z 1212/1312 27006KT P6SM SKC
FM121800 VRB05KT P6SM SKC
FM122300 30011KT P6SM SKC
FM130500 28006KT P6SM SKC

Example: see airport list